createdAt,value
2018-08-10T00:01:06.550Z,98710.05
2018-08-10T00:03:35.808Z,98714.81
2018-08-10T00:06:05.082Z,98719.00
2018-08-10T00:08:34.309Z,98727.98
2018-08-10T00:11:03.553Z,98733.17
2018-08-10T00:13:32.678Z,98735.23
2018-08-10T00:16:01.893Z,98738.42
2018-08-10T00:18:31.065Z,98746.70
2018-08-10T00:21:00.279Z,98747.33
2018-08-10T00:23:29.501Z,98750.91
2018-08-10T00:25:58.754Z,98759.54
2018-08-10T00:28:28.004Z,98769.78
2018-08-10T00:30:57.211Z,98781.81
2018-08-10T00:33:28.010Z,98790.55
2018-08-10T00:35:57.964Z,98789.50
2018-08-10T00:38:27.132Z,98805.91
2018-08-10T00:40:56.373Z,98811.94
2018-08-10T00:43:25.618Z,98818.74
2018-08-10T00:45:54.882Z,98827.80
2018-08-10T00:48:24.124Z,98827.80
2018-08-10T00:50:53.361Z,98828.45
2018-08-10T00:53:22.513Z,98828.55
2018-08-10T00:55:51.683Z,98828.82
2018-08-10T00:58:20.934Z,98833.47
2018-08-10T01:00:50.090Z,98837.05
2018-08-10T01:03:19.270Z,98843.00
2018-08-10T01:05:48.431Z,98838.41
2018-08-10T01:08:17.581Z,98843.63
2018-08-10T01:10:46.806Z,98838.34
2018-08-10T01:13:16.052Z,98839.59
2018-08-10T01:15:45.222Z,98843.46
2018-08-10T01:18:14.592Z,98846.38
2018-08-10T01:20:43.804Z,98851.11
2018-08-10T01:23:12.981Z,98859.61
2018-08-10T01:25:42.146Z,98851.60
2018-08-10T01:28:11.403Z,98850.52
2018-08-10T01:30:40.689Z,98848.87
2018-08-10T01:33:10.044Z,98855.33
2018-08-10T01:35:39.249Z,98851.02
2018-08-10T01:38:08.426Z,98849.59
2018-08-10T01:40:37.632Z,98845.77
2018-08-10T01:43:07.017Z,98846.50
2018-08-10T01:45:36.325Z,98847.37
2018-08-10T01:48:07.139Z,98846.73
2018-08-10T01:50:36.292Z,98858.52
2018-08-10T01:53:05.461Z,98857.23
2018-08-10T01:55:34.663Z,98862.85
2018-08-10T01:58:03.845Z,98871.18
2018-08-10T02:00:33.065Z,98864.30
2018-08-10T02:03:02.218Z,98863.97
2018-08-10T02:05:31.554Z,98865.19
2018-08-10T02:08:00.708Z,98865.23
2018-08-10T02:10:29.869Z,98860.13
2018-08-10T02:12:59.487Z,98864.05
2018-08-10T02:15:28.742Z,98867.91
2018-08-10T02:17:57.904Z,98871.26
2018-08-10T02:20:27.077Z,98868.59
2018-08-10T02:22:56.780Z,98876.70
2018-08-10T02:25:25.953Z,98870.12
2018-08-10T02:27:55.138Z,98869.02
2018-08-10T02:30:24.310Z,98867.45
2018-08-10T02:32:53.497Z,98868.00
2018-08-10T02:35:22.697Z,98870.80
2018-08-10T02:37:51.925Z,98872.16
2018-08-10T02:40:22.378Z,98876.41
2018-08-10T02:42:52.520Z,98884.80
2018-08-10T02:45:21.681Z,98893.33
2018-08-10T02:47:51.170Z,98892.86
2018-08-10T02:50:20.460Z,98898.13
2018-08-10T02:52:49.682Z,98904.99
2018-08-10T02:55:18.894Z,98907.61
2018-08-10T02:57:48.085Z,98919.06
2018-08-10T03:00:17.993Z,98921.86
2018-08-10T03:02:47.248Z,98929.28
2018-08-10T03:05:16.406Z,98934.72
2018-08-10T03:07:45.561Z,98931.74
2018-08-10T03:10:15.029Z,98937.98
2018-08-10T03:12:44.242Z,98940.78
2018-08-10T03:15:16.977Z,98948.49
2018-08-10T03:17:46.606Z,98957.34
2018-08-10T03:20:15.800Z,98955.58
2018-08-10T03:22:44.947Z,98957.30
2018-08-10T03:25:14.994Z,98962.88
2018-08-10T03:27:44.173Z,98976.05
2018-08-10T03:30:13.796Z,98976.41
2018-08-10T03:32:42.944Z,98979.13
2018-08-10T03:35:12.132Z,98990.25
2018-08-10T03:37:41.333Z,98989.25
2018-08-10T03:40:12.674Z,98989.61
2018-08-10T03:42:42.102Z,98985.06
2018-08-10T03:45:11.596Z,98988.39
2018-08-10T03:47:41.209Z,98986.42
2018-08-10T03:50:12.497Z,98993.84
2018-08-10T03:52:42.124Z,98993.96
2018-08-10T03:55:11.716Z,99001.71
2018-08-10T03:57:41.060Z,99004.30
2018-08-10T04:00:12.235Z,99010.23
2018-08-10T04:02:41.392Z,99008.36
2018-08-10T04:05:11.790Z,99008.44
2018-08-10T04:07:40.983Z,99014.42
2018-08-10T04:10:10.805Z,99012.28
2018-08-10T04:12:40.065Z,99013.58
2018-08-10T04:15:12.072Z,99021.33
2018-08-10T04:17:42.406Z,99024.78
2018-08-10T04:20:11.669Z,99021.92
2018-08-10T04:22:40.841Z,99024.28
2018-08-10T04:25:10.252Z,99030.38
2018-08-10T04:27:39.419Z,99033.77
2018-08-10T04:30:10.165Z,99025.72
2018-08-10T04:32:39.860Z,99026.31
2018-08-10T04:35:09.488Z,99025.36
2018-08-10T04:37:38.699Z,99022.49
2018-08-10T04:40:09.922Z,99028.70
2018-08-10T04:42:39.213Z,99027.72
2018-08-10T04:45:09.136Z,99026.84
2018-08-10T04:47:42.443Z,99030.52
2018-08-10T04:50:11.641Z,99031.59
2018-08-10T04:52:40.880Z,99034.41
2018-08-10T04:55:10.172Z,99035.84
2018-08-10T04:57:39.331Z,99040.66
2018-08-10T05:00:12.563Z,99038.75
2018-08-10T05:02:41.752Z,99037.63
2018-08-10T05:05:11.483Z,99039.29
2018-08-10T05:07:41.621Z,99044.73
2018-08-10T05:10:10.962Z,99041.92
2018-08-10T05:12:40.701Z,99041.75
2018-08-10T05:15:10.988Z,99046.94
2018-08-10T05:17:40.349Z,99048.84
2018-08-10T05:20:10.721Z,99050.54
2018-08-10T05:22:40.718Z,99046.73
2018-08-10T05:25:09.962Z,99052.37
2018-08-10T05:27:39.109Z,99052.10
2018-08-10T05:30:09.441Z,99058.38
2018-08-10T05:32:38.720Z,99058.25
2018-08-10T05:35:09.184Z,99067.11
2018-08-10T05:37:38.429Z,99070.42
2018-08-10T05:40:08.883Z,99068.41
2018-08-10T05:42:38.098Z,99069.17
2018-08-10T05:45:07.824Z,99075.03
2018-08-10T05:47:37.035Z,99079.50
2018-08-10T05:50:06.807Z,99080.80
2018-08-10T05:52:35.975Z,99083.35
2018-08-10T05:55:05.746Z,99088.71
2018-08-10T05:57:35.021Z,99086.36
2018-08-10T06:00:04.238Z,99091.93
2018-08-10T06:02:34.035Z,99094.29
2018-08-10T06:05:03.300Z,99099.98
2018-08-10T06:07:32.478Z,99109.84
2018-08-10T06:10:01.652Z,99111.14
2018-08-10T06:12:31.613Z,99108.02
2018-08-10T06:15:00.887Z,99116.35
2018-08-10T06:17:30.094Z,99124.10
2018-08-10T06:19:59.433Z,99118.19
2018-08-10T06:22:28.534Z,99129.77
2018-08-10T06:24:57.877Z,99124.31
2018-08-10T06:27:27.042Z,99127.55
2018-08-10T06:29:56.272Z,99136.81
2018-08-10T06:32:25.496Z,99135.33
2018-08-10T06:34:54.634Z,99138.23
2018-08-10T06:37:23.845Z,99137.31
2018-08-10T06:39:53.015Z,99136.86
2018-08-10T06:42:22.374Z,99134.89
2018-08-10T06:44:51.641Z,99144.34
2018-08-10T06:47:22.972Z,99151.58
2018-08-10T06:49:52.921Z,99145.29
2018-08-10T06:52:23.767Z,99149.88
2018-08-10T06:54:55.022Z,99145.67
2018-08-10T06:57:26.747Z,99145.58
2018-08-10T06:59:58.011Z,99139.23
2018-08-10T07:02:27.770Z,99140.22
2018-08-10T07:04:57.009Z,99138.74
2018-08-10T07:07:26.335Z,99145.09
2018-08-10T07:09:55.498Z,99148.30
2018-08-10T07:12:24.682Z,99154.03
2018-08-10T07:14:53.907Z,99152.70
2018-08-10T07:17:23.075Z,99155.67
2018-08-10T07:19:52.273Z,99145.34
2018-08-10T07:22:21.493Z,99141.06
2018-08-10T07:24:50.687Z,99148.36
2018-08-10T07:27:19.878Z,99144.15
2018-08-10T07:29:49.053Z,99144.39
2018-08-10T07:32:18.223Z,99151.67
2018-08-10T07:34:47.477Z,99151.80
2018-08-10T07:37:16.625Z,99148.84
2018-08-10T07:39:46.776Z,99152.30
2018-08-10T07:42:16.017Z,99154.72
2018-08-10T07:44:45.217Z,99152.66
2018-08-10T07:47:14.362Z,99148.36
2018-08-10T07:49:44.072Z,99147.45
2018-08-10T07:52:13.362Z,99144.42
2018-08-10T07:54:42.469Z,99144.44
2018-08-10T07:57:11.790Z,99149.45
2018-08-10T07:59:41.054Z,99150.83
2018-08-10T08:02:10.294Z,99148.77
2018-08-10T08:04:45.377Z,99152.64
2018-08-10T08:07:14.591Z,99152.31
2018-08-10T08:09:43.846Z,99151.95
2018-08-10T08:12:13.097Z,99149.66
2018-08-10T08:14:42.406Z,99148.30
2018-08-10T08:17:11.584Z,99157.55
2018-08-10T08:19:40.928Z,99153.77
2018-08-10T08:22:13.465Z,99157.78
2018-08-10T08:24:43.108Z,99160.17
2018-08-10T08:27:13.699Z,99151.25
2018-08-10T08:29:42.870Z,99153.56
2018-08-10T08:32:12.319Z,99144.20
2018-08-10T08:34:41.763Z,99144.17
2018-08-10T08:37:11.917Z,99032.41
2018-08-10T08:40:49.021Z,99139.58
2018-08-10T08:43:32.370Z,99145.52
2018-08-10T08:46:06.039Z,99145.05
2018-08-10T08:48:36.839Z,99151.84
2018-08-10T08:51:08.567Z,99143.88
2018-08-10T08:53:37.808Z,99150.05
2018-08-10T08:56:08.800Z,99145.19
2018-08-10T08:58:38.644Z,99144.37
2018-08-10T09:01:08.705Z,99139.20
2018-08-10T09:04:19.380Z,99139.52
2018-08-10T09:06:48.586Z,99139.50
2018-08-10T09:09:28.878Z,99143.91
2018-08-10T09:11:58.161Z,99143.33
2018-08-10T09:14:44.614Z,99133.57
2018-08-10T09:17:13.936Z,99126.98
2018-08-10T09:19:43.294Z,99137.67
2018-08-10T09:22:13.189Z,99133.96
2018-08-10T09:24:42.817Z,99129.64
2018-08-10T09:27:12.278Z,99129.13
2018-08-10T09:30:09.653Z,99129.42
2018-08-10T09:32:39.006Z,99124.83
2018-08-10T09:35:09.614Z,99132.28
2018-08-10T09:37:38.890Z,99132.45
2018-08-10T09:40:11.452Z,99137.26
2018-08-10T09:42:40.722Z,99142.23
2018-08-10T09:45:11.233Z,99135.73
2018-08-10T09:47:40.722Z,99147.94
2018-08-10T09:50:11.354Z,99140.91
2018-08-10T09:52:40.746Z,99143.23
2018-08-10T09:55:21.738Z,99144.77
2018-08-10T09:57:52.482Z,99141.13
2018-08-10T10:00:26.929Z,99135.03
2018-08-10T10:03:01.314Z,99135.47
2018-08-10T10:05:30.588Z,99134.03
2018-08-10T10:07:59.911Z,99135.33
2018-08-10T10:10:29.164Z,99134.76
2018-08-10T10:12:58.914Z,99134.59
2018-08-10T10:15:28.173Z,99133.62
2018-08-10T10:18:00.143Z,99133.81
2018-08-10T10:20:29.512Z,99127.80
2018-08-10T10:22:58.769Z,99127.84
2018-08-10T10:25:28.028Z,99129.22
2018-08-10T10:27:57.428Z,99123.50
2018-08-10T10:30:26.911Z,99116.50
2018-08-10T10:32:56.135Z,99110.02
2018-08-10T10:35:25.309Z,99108.65
2018-08-10T10:37:54.504Z,99108.39
2018-08-10T10:40:23.914Z,99104.48
2018-08-10T10:42:53.136Z,99101.16
2018-08-10T10:45:22.448Z,99100.52
2018-08-10T10:47:51.728Z,99102.47
2018-08-10T10:50:20.898Z,99097.41
2018-08-10T10:52:50.084Z,99098.72
2018-08-10T10:55:19.287Z,99086.19
2018-08-10T10:57:48.540Z,99091.88
2018-08-10T11:00:19.546Z,99092.56
2018-08-10T11:02:49.246Z,99088.63
2018-08-10T11:05:18.829Z,99093.22
2018-08-10T11:07:48.072Z,99091.61
2018-08-10T11:10:18.586Z,99092.13
2018-08-10T11:12:47.740Z,99098.18
2018-08-10T11:15:16.920Z,99102.45
2018-08-10T11:17:46.116Z,99094.52
2018-08-10T11:20:15.286Z,99093.20
2018-08-10T11:22:44.481Z,99099.22
2018-08-10T11:25:14.798Z,99105.58
2018-08-10T11:27:44.674Z,99096.03
2018-08-10T11:30:14.052Z,99115.98
2018-08-10T11:32:43.213Z,99114.56
2018-08-10T11:35:12.379Z,99111.48
2018-08-10T11:37:41.572Z,99111.76
2018-08-10T11:40:13.245Z,99113.22
2018-08-10T11:42:43.010Z,99114.59
2018-08-10T11:45:14.523Z,99116.91
2018-08-10T11:47:43.743Z,99119.03
2018-08-10T11:50:13.224Z,99114.98
2018-08-10T11:52:42.317Z,99115.41
2018-08-10T11:55:13.566Z,99119.97
2018-08-10T11:57:43.498Z,99118.13
2018-08-10T12:00:14.167Z,99112.12
2018-08-10T12:02:43.679Z,99113.50
2018-08-10T12:05:13.729Z,99105.27
2018-08-10T12:07:42.961Z,99108.05
2018-08-10T12:10:12.146Z,99103.63
2018-08-10T12:12:41.374Z,99105.27
2018-08-10T12:15:13.161Z,99109.67
2018-08-10T12:17:42.388Z,99112.89
2018-08-10T12:20:11.564Z,99105.66
2018-08-10T12:22:41.733Z,99113.15
2018-08-10T12:25:11.569Z,99111.28
2018-08-10T12:27:40.729Z,99114.98
2018-08-10T12:30:11.688Z,99128.64
2018-08-10T12:32:40.852Z,99125.17
2018-08-10T12:35:11.335Z,99140.44
2018-08-10T12:37:40.609Z,99147.16
2018-08-10T12:40:09.892Z,99151.73
2018-08-10T12:42:39.602Z,99145.80
2018-08-10T12:45:09.056Z,99152.05
2018-08-10T12:47:38.731Z,99149.85
2018-08-10T12:50:08.542Z,99144.81
2018-08-10T12:52:37.775Z,99154.50
2018-08-10T12:55:07.277Z,99162.28
2018-08-10T12:57:36.481Z,99167.45
2018-08-10T13:00:08.382Z,99176.92
2018-08-10T13:02:37.728Z,99184.95
2018-08-10T13:05:07.585Z,99190.25
2018-08-10T13:07:37.005Z,99199.22
2018-08-10T13:10:08.463Z,99203.84
2018-08-10T13:12:38.086Z,99202.91
2018-08-10T13:15:09.494Z,99210.55
2018-08-10T13:17:38.697Z,99217.00
2018-08-10T13:20:10.678Z,99212.68
2018-08-10T13:22:40.058Z,99215.41
2018-08-10T13:25:10.353Z,99206.89
2018-08-10T13:27:39.641Z,99200.30
2018-08-10T13:30:10.830Z,99218.55
2018-08-10T13:32:40.065Z,99227.38
2018-08-10T13:35:09.465Z,99237.68
2018-08-10T13:37:38.707Z,99235.44
2018-08-10T13:40:07.941Z,99244.73
2018-08-10T13:42:37.199Z,99241.12
2018-08-10T13:45:08.827Z,99253.67
2018-08-10T13:47:38.015Z,99260.85
2018-08-10T13:50:08.874Z,99275.02
2018-08-10T13:52:38.119Z,99271.77
2018-08-10T13:55:08.239Z,99273.75
2018-08-10T13:57:37.409Z,99266.75
2018-08-10T14:00:06.819Z,99290.00
2018-08-10T14:02:36.104Z,99295.51
2018-08-10T14:05:05.869Z,99294.45
2018-08-10T14:07:35.235Z,99298.97
2018-08-10T14:10:04.627Z,99305.58
2018-08-10T14:12:33.869Z,99304.61
2018-08-10T14:15:03.069Z,99310.61
2018-08-10T14:17:32.271Z,99319.31
2018-08-10T14:20:01.482Z,99306.54
2018-08-10T14:22:30.693Z,99325.55
2018-08-10T14:25:00.492Z,99314.49
2018-08-10T14:27:29.773Z,99321.18
2018-08-10T14:29:58.942Z,99321.81
2018-08-10T14:32:28.193Z,99326.70
2018-08-10T14:34:57.393Z,99333.80
2018-08-10T14:37:26.646Z,99341.48
2018-08-10T14:39:56.272Z,99340.25
2018-08-10T14:42:25.499Z,99337.20
2018-08-10T14:44:54.705Z,99342.16
2018-08-10T14:47:23.972Z,99345.99
2018-08-10T14:49:53.170Z,99355.52
2018-08-10T14:52:22.352Z,99360.26
2018-08-10T14:54:51.560Z,99362.48
2018-08-10T14:57:20.747Z,99359.41
2018-08-10T14:59:49.939Z,99363.95
2018-08-10T15:02:19.190Z,99371.33
2018-08-10T15:04:48.352Z,99368.19
2018-08-10T15:07:17.557Z,99374.81
2018-08-10T15:09:47.263Z,99381.63
2018-08-10T15:12:16.926Z,99383.54
2018-08-10T15:14:46.122Z,99384.16
2018-08-10T15:17:15.312Z,99387.47
2018-08-10T15:19:44.506Z,99390.48
2018-08-10T15:22:13.706Z,99391.05
2018-08-10T15:24:42.910Z,99389.75
2018-08-10T15:27:12.068Z,99398.46
2018-08-10T15:29:41.294Z,99405.30
2018-08-10T15:32:10.514Z,99408.05
2018-08-10T15:34:39.831Z,99411.02
2018-08-10T15:37:09.186Z,99415.59
2018-08-10T15:39:38.372Z,99423.48
2018-08-10T15:42:08.172Z,99433.27
2018-08-10T15:44:37.335Z,99434.91
2018-08-10T15:47:07.241Z,99437.34
2018-08-10T15:49:36.469Z,99437.36
2018-08-10T15:52:05.934Z,99433.03
2018-08-10T15:54:35.154Z,99440.83
2018-08-10T15:57:04.398Z,99440.58
2018-08-10T15:59:33.582Z,99440.58
2018-08-10T16:02:02.781Z,99440.03
2018-08-10T16:04:31.944Z,99435.20
2018-08-10T16:07:01.171Z,99439.30
2018-08-10T16:09:30.365Z,99431.78
2018-08-10T16:11:59.483Z,99435.03
2018-08-10T16:14:28.670Z,99435.30
2018-08-10T16:17:01.535Z,99428.27
2018-08-10T16:19:30.676Z,99433.13
2018-08-10T16:22:00.394Z,99432.86
2018-08-10T16:24:29.669Z,99430.70
2018-08-10T16:26:58.830Z,99425.61
2018-08-10T16:29:28.120Z,99425.88
2018-08-10T16:31:57.303Z,99425.06
2018-08-10T16:34:26.686Z,99432.62
2018-08-10T16:36:55.884Z,99438.02
2018-08-10T16:39:25.353Z,99430.74
2018-08-10T16:41:54.539Z,99429.67
2018-08-10T16:44:23.755Z,99429.14
2018-08-10T16:46:53.020Z,99416.72
2018-08-10T16:49:22.202Z,99417.52
2018-08-10T16:51:51.388Z,99416.18
2018-08-10T16:54:20.609Z,99409.72
2018-08-10T16:56:49.830Z,99405.41
2018-08-10T16:59:19.398Z,99400.00
2018-08-10T17:01:48.567Z,99402.17
2018-08-10T17:04:19.356Z,99404.86
2018-08-10T17:06:48.569Z,99397.02
2018-08-10T17:09:17.793Z,99391.62
2018-08-10T17:11:47.054Z,99386.23
2018-08-10T17:14:16.257Z,99387.02
2018-08-10T17:16:45.495Z,99388.34
2018-08-10T17:19:14.681Z,99395.12
2018-08-10T17:21:43.862Z,99388.92
2018-08-10T17:24:13.093Z,99397.00
2018-08-10T17:26:42.330Z,99389.71
2018-08-10T17:34:10.991Z,99420.50
2018-08-10T17:36:40.133Z,99427.23
2018-08-10T17:39:11.503Z,99420.51
2018-08-10T17:41:40.752Z,99429.16
2018-08-10T17:44:09.980Z,99432.66
2018-08-10T17:46:39.165Z,99429.14
2018-08-10T17:49:08.787Z,99429.16
2018-08-10T17:51:38.071Z,99436.45
2018-08-10T17:54:07.298Z,99437.00
2018-08-10T17:56:36.587Z,99438.88
2018-08-10T17:59:06.773Z,99440.23
2018-08-10T18:01:35.996Z,99438.88
2018-08-10T18:04:05.170Z,99435.94
2018-08-10T18:06:34.358Z,99445.63
2018-08-10T18:09:03.628Z,99446.73
2018-08-10T18:11:32.817Z,99447.80
2018-08-10T18:14:02.014Z,99450.78
2018-08-10T18:16:31.305Z,99452.13
2018-08-10T18:19:00.517Z,99456.41
2018-08-10T18:21:29.678Z,99457.75
2018-08-10T18:23:58.875Z,99453.69
2018-08-10T18:26:28.053Z,99453.13
2018-08-10T18:28:57.254Z,99459.85
2018-08-10T18:31:26.429Z,99453.06
2018-08-10T18:33:55.625Z,99457.94
2018-08-10T18:36:24.771Z,99459.03
2018-08-10T18:38:53.993Z,99461.72
2018-08-10T18:41:23.258Z,99456.41
2018-08-10T18:43:52.423Z,99461.80
2018-08-10T18:46:21.595Z,99462.34
2018-08-10T18:48:51.303Z,99462.36
2018-08-10T18:51:20.495Z,99472.07
2018-08-10T18:53:49.713Z,99467.78
2018-08-10T18:56:18.921Z,99471.01
2018-08-10T18:58:48.077Z,99469.09
2018-08-10T19:01:17.285Z,99477.75
2018-08-10T19:03:47.366Z,99475.84
2018-08-10T19:06:16.506Z,99476.93
2018-08-10T19:08:45.824Z,99482.06
2018-08-10T19:11:15.039Z,99480.15
2018-08-10T19:13:44.232Z,99480.97
2018-08-10T19:16:13.447Z,99488.78
2018-08-10T19:18:42.700Z,99488.25
2018-08-10T19:21:11.936Z,99488.53
2018-08-10T19:23:41.121Z,99478.28
2018-08-10T19:26:10.328Z,99480.44
2018-08-10T19:28:39.507Z,99482.86
2018-08-10T19:31:08.873Z,99484.48
2018-08-10T19:33:38.152Z,99477.75
2018-08-10T19:36:07.484Z,99479.91
2018-08-10T19:38:36.791Z,99480.16
2018-08-10T19:41:06.208Z,99475.30
2018-08-10T19:43:35.348Z,99474.49
2018-08-10T19:46:04.558Z,99476.13
2018-08-10T19:48:33.874Z,99480.98
2018-08-10T19:51:02.986Z,99476.41
2018-08-10T19:53:32.187Z,99476.38
2018-08-10T19:56:01.396Z,99482.87
2018-08-10T19:58:30.858Z,99484.75
2018-08-10T20:01:00.612Z,99493.13
2018-08-10T20:03:29.831Z,99485.81
2018-08-10T20:05:59.285Z,99491.50
2018-08-10T20:08:29.906Z,99492.53
2018-08-10T20:10:59.170Z,99483.37
2018-08-10T20:13:28.392Z,99493.13
2018-08-10T20:15:57.563Z,99494.75
2018-08-10T20:18:26.755Z,99495.82
2018-08-10T20:20:55.967Z,99486.91
2018-08-10T20:23:25.165Z,99492.84
2018-08-10T20:25:54.355Z,99493.40
2018-08-10T20:28:23.627Z,99493.66
2018-08-10T20:30:52.736Z,99493.66
2018-08-10T20:33:22.006Z,99490.94
2018-08-10T20:35:51.218Z,99498.74
2018-08-10T20:38:20.841Z,99491.72
2018-08-10T20:40:50.101Z,99495.52
2018-08-10T20:43:19.365Z,99483.09
2018-08-10T20:45:49.428Z,99480.94
2018-08-10T20:48:18.732Z,99477.95
2018-08-10T20:50:47.994Z,99473.09
2018-08-10T20:53:17.216Z,99479.84
2018-08-10T20:55:48.359Z,99481.47
2018-08-10T20:58:17.470Z,99492.25
2018-08-10T21:00:46.635Z,99485.23
2018-08-10T21:03:15.963Z,99480.41
2018-08-10T21:05:45.170Z,99482.81
2018-08-10T21:08:14.483Z,99473.09
2018-08-10T21:10:44.120Z,99456.92
2018-08-10T21:13:13.315Z,99460.16
2018-08-10T21:15:42.564Z,99465.55
2018-08-10T21:18:11.884Z,99469.05
2018-08-10T21:20:41.120Z,99474.73
2018-08-10T21:23:10.357Z,99477.95
2018-08-10T21:25:39.582Z,99479.84
2018-08-10T21:28:08.809Z,99486.05
2018-08-10T21:30:38.010Z,99493.06
2018-08-10T21:33:07.616Z,99488.73
2018-08-10T21:35:36.837Z,99479.88
2018-08-10T21:38:06.087Z,99474.73
2018-08-10T21:40:40.388Z,99489.02
2018-08-10T21:43:09.829Z,99485.80
2018-08-10T21:45:39.071Z,99486.38
2018-08-10T21:48:08.251Z,99483.41
2018-08-10T21:50:37.448Z,99480.70
2018-08-10T21:53:07.788Z,99480.70
2018-08-10T21:55:36.986Z,99485.79
2018-08-10T21:58:06.323Z,99484.44
2018-08-10T22:00:51.666Z,99479.58
2018-08-10T22:03:22.199Z,99475.83
2018-08-10T22:05:51.448Z,99471.24
2018-08-10T22:08:21.814Z,99472.59
2018-08-10T22:10:51.219Z,99471.78
2018-08-10T22:13:25.676Z,99467.98
2018-08-10T22:16:00.155Z,99464.50
2018-08-10T22:18:34.723Z,99465.06
2018-08-10T22:21:04.154Z,99464.81
2018-08-10T22:23:33.328Z,99462.36
2018-08-10T22:26:03.003Z,99467.22
2018-08-10T22:28:32.239Z,99466.16
2018-08-10T22:31:02.988Z,99470.73
2018-08-10T22:33:33.960Z,99468.84
2018-08-10T22:36:03.170Z,99459.13
2018-08-10T22:38:32.424Z,99450.24
2018-08-10T22:41:01.645Z,99442.94
2018-08-10T22:43:30.860Z,99439.70
2018-08-10T22:46:00.424Z,99437.83
2018-08-10T22:48:29.606Z,99437.29
2018-08-10T22:50:58.824Z,99438.36
2018-08-10T22:53:28.121Z,99437.54
2018-08-10T22:55:57.331Z,99434.59
2018-08-10T22:58:28.069Z,99431.89
2018-08-10T23:00:57.256Z,99425.40
2018-08-10T23:03:26.456Z,99434.30
2018-08-10T23:05:55.673Z,99431.35
2018-08-10T23:08:24.923Z,99422.70
2018-08-10T23:10:54.084Z,99418.40
2018-08-10T23:13:23.323Z,99417.58
2018-08-10T23:15:52.579Z,99414.61
2018-08-10T23:18:21.783Z,99411.13
2018-08-10T23:20:50.993Z,99400.88
2018-08-10T23:23:20.185Z,99399.26
2018-08-10T23:25:49.398Z,99400.07
2018-08-10T23:28:18.604Z,99392.23
2018-08-10T23:30:47.799Z,99386.06
2018-08-10T23:33:17.015Z,99381.19
2018-08-10T23:35:46.203Z,99374.98
2018-08-10T23:38:15.425Z,99377.14
2018-08-10T23:40:44.822Z,99379.31
2018-08-10T23:43:14.037Z,99379.83
2018-08-10T23:45:43.325Z,99369.58
2018-08-10T23:48:12.525Z,99370.10
2018-08-10T23:50:41.739Z,99367.97
2018-08-10T23:53:12.019Z,99341.53
2018-08-10T23:55:41.213Z,99360.66
2018-08-10T23:58:10.467Z,99353.92
